Time;durP1;ratioP1;P1;durP2;ratioP2;P2;SDS_P1;SDS_P2;PMS_P1;PMS_P2;Temp;Humidity;BMP_temperature;BMP_pressure;BME280_temperature;BME280_humidity;BME280_pressure;Samples;Min_cycle;Max_cycle;Signal;HPM_P1;HPM_P2
2021/11/04 00:05:19;;;;;;;8.70;8.00;;;;;;;;;;4597297;31;20059;-81
2021/11/04 00:08:46;;;;;;;8.98;8.27;;;;;;;;;;4607006;31;20066;-82
2021/11/04 00:46:22;;;;;;;3.60;3.22;;;;;;;;;;4593540;31;20089;-82
2021/11/04 00:52:48;;;;;;;4.22;3.10;;;;;;;;;;4549627;31;20061;-82
2021/11/04 01:01:41;;;;;;;5.07;3.50;;;;;;;;;;5415660;24;20066;-81
2021/11/04 01:04:09;;;;;;;4.88;3.03;;;;;;;;;;4848986;29;20046;-81
2021/11/04 01:06:38;;;;;;;3.88;3.33;;;;;;;;;;4837421;29;20046;-82
2021/11/04 01:09:28;;;;;;;3.40;3.07;;;;;;;;;;4852805;29;20045;-82
2021/11/04 01:12:13;;;;;;;7.65;3.50;;;;;;;;;;4844239;29;20150;-81
2021/11/04 01:15:00;;;;;;;5.85;3.72;;;;;;;;;;4821326;29;20035;-82
2021/11/04 01:18:06;;;;;;;4.15;3.55;;;;;;;;;;4836958;29;20062;-82
2021/11/04 01:20:32;;;;;;;4.63;3.70;;;;;;;;;;4835657;29;20031;-82
2021/11/04 01:22:57;;;;;;;3.67;3.38;;;;;;;;;;4841878;29;20034;-82
2021/11/04 01:25:25;;;;;;;4.10;3.53;;;;;;;;;;4846426;29;20056;-82
2021/11/04 01:27:50;;;;;;;5.13;4.28;;;;;;;;;;4830879;29;20121;-82
2021/11/04 01:30:21;;;;;;;4.75;4.22;;;;;;;;;;4833305;29;20045;-82
2021/11/04 01:32:47;;;;;;;5.47;4.30;;;;;;;;;;4842268;29;20106;-82
2021/11/04 01:35:31;;;;;;;5.22;4.18;;;;;;;;;;4851574;29;20042;-82
2021/11/04 01:38:05;;;;;;;6.43;4.05;;;;;;;;;;4837677;29;20121;-82
2021/11/04 01:40:45;;;;;;;3.70;3.40;;;;;;;;;;4866024;29;20514;-83
2021/11/04 01:43:58;;;;;;;4.57;4.13;;;;;;;;;;4853894;29;20065;-82
2021/11/04 01:46:46;;;;;;;4.25;3.53;;;;;;;;;;4854129;29;20452;-83
2021/11/04 01:49:47;;;;;;;6.03;3.55;;;;;;;;;;4853784;29;20045;-82
2021/11/04 01:52:42;;;;;;;4.90;3.65;;;;;;;;;;4817393;29;20042;-82
2021/11/04 01:56:04;;;;;;;4.22;3.83;;;;;;;;;;4853421;29;20034;-82
2021/11/04 01:59:05;;;;;;;4.07;3.67;;;;;;;;;;4835819;29;20034;-82
2021/11/04 02:02:10;;;;;;;3.75;3.45;;;;;;;;;;4796182;29;20073;-82
2021/11/04 02:05:37;;;;;;;4.45;4.05;;;;;;;;;;4798569;30;20063;-82
2021/11/04 02:08:58;;;;;;;5.18;4.30;;;;;;;;;;4770934;30;20398;-83
2021/11/04 02:12:07;;;;;;;6.07;4.05;;;;;;;;;;4798117;30;20043;-83
2021/11/04 02:15:11;;;;;;;4.97;4.47;;;;;;;;;;4802919;30;20050;-82
2021/11/04 02:39:17;;;;;;;4.65;4.10;;;;;;;;;;5732204;24;20014;-83
2021/11/04 02:42:47;;;;;;;5.72;3.97;;;;;;;;;;4818951;29;20078;-83
2021/11/04 02:49:19;;;;;;;5.50;4.38;;;;;;;;;;4804649;29;20057;-82
2021/11/04 02:52:33;;;;;;;5.38;4.18;;;;;;;;;;4768920;30;20048;-82
2021/11/04 02:56:10;;;;;;;5.32;4.63;;;;;;;;;;4780318;30;20039;-83
2021/11/04 02:59:38;;;;;;;6.53;4.72;;;;;;;;;;4786520;29;20099;-83
2021/11/04 03:03:06;;;;;;;5.18;4.68;;;;;;;;;;4715038;30;20064;-83
2021/11/04 03:16:34;;;;;;;5.55;3.90;;;;;;;;;;4697169;30;20064;-84
2021/11/04 03:20:13;;;;;;;3.90;3.22;;;;;;;;;;4675488;30;20023;-82
2021/11/04 03:31:04;;;;;;;5.70;3.83;;;;;;;;;;4645663;30;20050;-83
2021/11/04 03:38:35;;;;;;;;;;;;;;;;;;;;;
2021/11/04 06:19:36;;;;;;;7.25;6.55;;;;;;;;;;5169256;24;20049;-82
2021/11/04 06:22:01;;;;;;;7.28;5.88;;;;;;;;;;4850532;29;20044;-82
2021/11/04 06:24:27;;;;;;;7.32;6.40;;;;;;;;;;4863535;29;20051;-84
2021/11/04 06:27:40;;;;;;;8.48;6.95;;;;;;;;;;4866154;29;20020;-83
2021/11/04 06:30:46;;;;;;;7.55;6.30;;;;;;;;;;4866481;29;20021;-83
2021/11/04 06:33:44;;;;;;;7.80;7.00;;;;;;;;;;4866976;29;20029;-82
2021/11/04 08:11:55;;;;;;;8.05;6.70;;;;;;;;;;5923263;23;20061;31
2021/11/04 09:37:23;;;;;;;4.97;3.47;;;;;;;;;;4859671;29;20049;-79
2021/11/04 17:42:27;;;;;;;4.85;3.85;;;;;;;;;;5862419;24;20028;-81
2021/11/04 17:44:54;;;;;;;6.28;3.83;;;;;;;;;;4850720;29;20054;-82
2021/11/04 17:47:46;;;;;;;8.70;4.47;;;;;;;;;;4857157;29;20022;-82
2021/11/04 17:50:16;;;;;;;6.53;4.93;;;;;;;;;;4865025;29;20033;-81
2021/11/04 17:52:44;;;;;;;6.60;5.43;;;;;;;;;;4848886;29;20031;-83
2021/11/04 17:55:56;;;;;;;5.93;4.97;;;;;;;;;;4872937;29;20037;-83
2021/11/04 18:02:38;;;;;;;5.78;4.07;;;;;;;;;;4884216;29;20090;-83
2021/11/04 18:06:15;;;;;;;4.90;3.83;;;;;;;;;;4791289;30;20168;-83
2021/11/04 18:13:16;;;;;;;7.60;6.05;;;;;;;;;;4698688;30;20068;-82
2021/11/04 18:17:11;;;;;;;9.38;7.18;;;;;;;;;;4695583;30;20072;-82
2021/11/04 18:33:53;;;;;;;11.23;7.18;;;;;;;;;;4642686;30;20050;-83
2021/11/04 18:37:36;;;;;;;10.82;6.55;;;;;;;;;;4612524;31;20123;-82
2021/11/04 18:40:57;;;;;;;7.20;6.25;;;;;;;;;;4595188;31;20072;-83
2021/11/04 18:50:50;;;;;;;9.80;7.68;;;;;;;;;;4602658;30;20085;-82
2021/11/04 18:53:51;;;;;;;;;;;;;;;;;;4653217;30;20127;-84
2021/11/04 18:57:24;;;;;;;9.55;7.50;;;;;;;;;;4699310;30;19919;-84
2021/11/04 19:10:59;;;;;;;11.02;9.23;;;;;;;;;;4653443;30;20063;-84
2021/11/04 19:36:41;;;;;;;14.05;11.60;;;;;;;;;;4588633;31;20067;-84
2021/11/04 20:00:54;;;;;;;16.10;12.68;;;;;;;;;;4610930;31;20047;-83
2021/11/04 20:27:54;;;;;;;17.38;12.75;;;;;;;;;;4574160;31;20074;-84
2021/11/04 23:40:27;;;;;;;18.25;13.63;;;;;;;;;;5014793;24;20458;-81
2021/11/04 23:43:13;;;;;;;18.00;14.32;;;;;;;;;;4851908;29;20561;-82
2021/11/04 23:45:51;;;;;;;19.63;14.18;;;;;;;;;;4838095;29;20495;-81
2021/11/04 23:48:19;;;;;;;18.50;13.90;;;;;;;;;;4868315;29;20120;-82
2021/11/04 23:50:48;;;;;;;16.65;13.30;;;;;;;;;;4867877;29;20029;-81
2021/11/04 23:53:35;;;;;;;18.15;14.48;;;;;;;;;;4850802;29;20086;-82
2021/11/04 23:56:07;;;;;;;18.77;13.88;;;;;;;;;;4869959;29;20030;-81
2021/11/04 23:58:36;;;;;;;20.02;14.65;;;;;;;;;;4854418;29;20483;-83
